createdAt,value
2022-08-28T00:00:53.150Z,89.3
2022-08-28T00:01:53.717Z,89.5
2022-08-28T00:02:54.379Z,89.4
2022-08-28T00:03:54.925Z,89.3
2022-08-28T00:04:55.550Z,89.3
2022-08-28T00:05:56.119Z,89.2
2022-08-28T00:06:56.714Z,88.5
2022-08-28T00:07:57.317Z,88.8
2022-08-28T00:08:57.909Z,89.3
2022-08-28T00:09:58.508Z,89.4
2022-08-28T00:10:59.104Z,89.2
2022-08-28T00:11:59.700Z,89.2
2022-08-28T00:13:00.296Z,89.5
2022-08-28T00:14:00.889Z,89.7
2022-08-28T00:15:01.488Z,89.4
2022-08-28T00:16:02.165Z,90.0
2022-08-28T00:17:02.704Z,90.1
2022-08-28T00:18:03.299Z,89.9
2022-08-28T00:19:03.895Z,90.2
2022-08-28T00:20:04.492Z,90.2
2022-08-28T00:21:05.088Z,90.4
2022-08-28T00:22:05.684Z,90.6
2022-08-28T00:23:06.279Z,90.8
2022-08-28T00:24:06.899Z,90.3
2022-08-28T00:25:07.513Z,90.4
2022-08-28T00:26:08.108Z,90.3
2022-08-28T00:27:08.703Z,91.1
2022-08-28T00:28:09.322Z,90.1
2022-08-28T00:29:09.894Z,91.6
2022-08-28T00:30:10.492Z,90.6
2022-08-28T00:31:11.176Z,90.9
2022-08-28T00:32:11.742Z,90.1
2022-08-28T00:33:12.338Z,90.8
2022-08-28T00:34:12.936Z,90.6
2022-08-28T00:35:13.533Z,90.5
2022-08-28T00:36:14.229Z,91.4
2022-08-28T00:37:14.845Z,90.2
2022-08-28T00:38:15.471Z,90.9
2022-08-28T00:39:16.402Z,91.2
2022-08-28T00:40:17.677Z,89.8
2022-08-28T00:41:19.219Z,90.9
2022-08-28T00:42:20.812Z,90.9
2022-08-28T00:43:21.406Z,90.1
2022-08-28T00:44:22.004Z,91.7
2022-08-28T00:45:22.596Z,91.2
2022-08-28T00:46:23.277Z,91.2
2022-08-28T00:47:23.831Z,91.1
2022-08-28T00:48:24.657Z,91.3
2022-08-28T00:49:25.272Z,91.2
2022-08-28T00:50:25.868Z,91.1
2022-08-28T00:51:26.464Z,91.2
2022-08-28T00:52:27.064Z,91.0
2022-08-28T00:53:31.649Z,91.3
2022-08-28T00:54:29.265Z,91.2
2022-08-28T00:55:29.859Z,91.0
2022-08-28T00:56:30.456Z,91.1
2022-08-28T00:57:31.051Z,91.0
2022-08-28T00:58:31.648Z,91.5
2022-08-28T00:59:32.242Z,91.8
2022-08-28T01:00:32.853Z,91.9
2022-08-28T01:01:33.523Z,91.9
2022-08-28T01:02:34.147Z,91.9
2022-08-28T01:03:34.692Z,92.1
2022-08-28T01:04:35.289Z,91.9
2022-08-28T01:05:36.832Z,92.0
2022-08-28T01:06:37.428Z,92.0
2022-08-28T01:07:38.026Z,91.9
2022-08-28T01:08:38.629Z,91.9
2022-08-28T01:09:39.235Z,92.1
2022-08-28T01:10:39.833Z,92.1
2022-08-28T01:11:40.426Z,92.3
2022-08-28T01:12:41.023Z,91.9
2022-08-28T01:13:41.616Z,92.2
2022-08-28T01:14:42.214Z,92.0
2022-08-28T01:15:42.825Z,92.1
2022-08-28T01:16:43.404Z,92.2
2022-08-28T01:17:44.001Z,91.9
2022-08-28T01:18:44.597Z,91.9
2022-08-28T01:19:45.198Z,91.7
2022-08-28T01:20:45.791Z,91.6
2022-08-28T01:21:46.387Z,91.6
2022-08-28T01:22:46.982Z,91.8
2022-08-28T01:23:47.578Z,92.1
2022-08-28T01:24:48.175Z,91.9
2022-08-28T01:25:48.770Z,91.9
2022-08-28T01:26:49.364Z,92.1
2022-08-28T01:27:49.963Z,92.1
2022-08-28T01:28:50.557Z,91.6
2022-08-28T01:29:51.172Z,91.8
2022-08-28T01:30:51.824Z,91.7
2022-08-28T01:31:52.368Z,91.8
2022-08-28T01:32:52.984Z,92.0
2022-08-28T01:33:53.582Z,92.1
2022-08-28T01:34:54.197Z,91.9
2022-08-28T01:35:54.793Z,92.1
2022-08-28T01:36:55.392Z,92.1
2022-08-28T01:37:56.980Z,92.1
2022-08-28T01:38:57.573Z,92.2
2022-08-28T01:39:58.229Z,92.6
2022-08-28T01:40:58.813Z,92.7
2022-08-28T01:41:59.411Z,92.2
2022-08-28T01:43:00.027Z,92.8
2022-08-28T01:44:00.626Z,92.9
2022-08-28T01:45:01.221Z,93.0
2022-08-28T01:46:01.900Z,93.6
2022-08-28T01:47:02.463Z,93.3
2022-08-28T01:48:03.060Z,93.3
2022-08-28T01:49:03.656Z,93.3
2022-08-28T01:50:04.254Z,93.3
2022-08-28T01:51:04.852Z,94.1
2022-08-28T01:52:05.466Z,93.7
2022-08-28T01:53:06.797Z,94.2
2022-08-28T01:54:08.382Z,94.8
2022-08-28T01:55:09.969Z,94.8
2022-08-28T01:56:10.571Z,94.5
2022-08-28T01:57:11.184Z,94.9
2022-08-28T01:58:12.018Z,95.5
2022-08-28T01:59:12.597Z,96.0
2022-08-28T02:00:13.191Z,95.3
2022-08-28T02:01:13.892Z,94.7
2022-08-28T02:02:14.484Z,94.8
2022-08-28T02:03:15.081Z,94.1
2022-08-28T02:04:15.721Z,94.5
2022-08-28T02:05:16.304Z,94.2
2022-08-28T02:06:16.903Z,94.1
2022-08-28T02:07:17.495Z,93.9
2022-08-28T02:08:18.092Z,93.7
2022-08-28T02:09:18.689Z,93.3
2022-08-28T02:10:19.292Z,93.4
2022-08-28T02:11:19.881Z,93.5
2022-08-28T02:12:20.478Z,93.3
2022-08-28T02:13:21.074Z,93.7
2022-08-28T02:14:22.665Z,93.4
2022-08-28T02:15:23.656Z,93.3
2022-08-28T02:16:24.234Z,93.7
2022-08-28T02:17:24.829Z,93.7
2022-08-28T02:18:25.446Z,93.4
2022-08-28T02:19:26.060Z,93.3
2022-08-28T02:20:26.655Z,93.9
2022-08-28T02:21:27.270Z,93.8
2022-08-28T02:22:27.867Z,94.1
2022-08-28T02:23:28.466Z,94.4
2022-08-28T02:24:29.059Z,94.5
2022-08-28T02:25:29.657Z,94.4
2022-08-28T02:26:30.254Z,93.9
2022-08-28T02:27:30.851Z,94.4
2022-08-28T02:28:31.446Z,94.4
2022-08-28T02:29:32.040Z,93.8
2022-08-28T02:30:32.639Z,93.8
2022-08-28T02:31:33.236Z,94.0
2022-08-28T02:32:33.833Z,94.1
2022-08-28T02:33:34.428Z,94.5
2022-08-28T02:34:35.024Z,94.1
2022-08-28T02:35:35.622Z,94.8
2022-08-28T02:36:36.217Z,94.2
2022-08-28T02:37:36.815Z,95.4
2022-08-28T02:38:37.412Z,95.6
2022-08-28T02:39:38.006Z,95.8
2022-08-28T02:40:38.668Z,95.8
2022-08-28T02:41:39.266Z,95.7
2022-08-28T02:42:39.880Z,95.7
2022-08-28T02:43:40.474Z,96.4
2022-08-28T02:44:41.069Z,96.5
2022-08-28T02:45:41.664Z,96.6
2022-08-28T02:46:42.261Z,96.9
2022-08-28T02:47:42.858Z,97.1
2022-08-28T02:48:43.453Z,96.9
2022-08-28T02:49:44.048Z,97.2
2022-08-28T02:50:44.645Z,97.6
2022-08-28T02:51:45.241Z,97.5
2022-08-28T02:52:45.835Z,97.3
2022-08-28T02:53:46.431Z,98.0
2022-08-28T02:54:47.026Z,97.5
2022-08-28T02:55:47.622Z,97.8
2022-08-28T02:56:48.220Z,97.8
2022-08-28T02:57:48.824Z,97.8
2022-08-28T02:58:49.412Z,97.9
2022-08-28T02:59:50.007Z,97.9
2022-08-28T03:00:50.606Z,97.8
2022-08-28T03:01:51.246Z,97.8
2022-08-28T03:02:51.867Z,98.0
2022-08-28T03:03:52.426Z,97.9
2022-08-28T03:04:53.023Z,97.9
2022-08-28T03:05:53.628Z,98.0
2022-08-28T03:06:54.215Z,97.9
2022-08-28T03:07:54.813Z,97.8
2022-08-28T03:08:55.409Z,97.9
2022-08-28T03:09:56.004Z,97.4
2022-08-28T03:10:56.602Z,97.3
2022-08-28T03:11:57.204Z,97.6
2022-08-28T03:12:57.794Z,97.4
2022-08-28T03:13:58.392Z,97.3
2022-08-28T03:14:59.007Z,97.6
2022-08-28T03:15:59.602Z,97.6
2022-08-28T03:17:00.245Z,97.6
2022-08-28T03:18:00.792Z,97.7
2022-08-28T03:19:01.475Z,97.6
2022-08-28T03:20:02.067Z,97.3
2022-08-28T03:21:02.664Z,97.2
2022-08-28T03:22:03.258Z,97.2
2022-08-28T03:23:03.858Z,97.1
2022-08-28T03:24:04.450Z,97.1
2022-08-28T03:25:05.048Z,97.1
2022-08-28T03:26:05.641Z,97.6
2022-08-28T03:27:06.238Z,97.0
2022-08-28T03:28:06.918Z,97.6
2022-08-28T03:29:07.517Z,97.5
2022-08-28T03:30:08.116Z,97.5
2022-08-28T03:31:08.764Z,97.7
2022-08-28T03:32:09.342Z,97.6
2022-08-28T03:33:09.941Z,97.6
2022-08-28T03:34:10.537Z,97.5
2022-08-28T03:35:11.136Z,97.4
2022-08-28T03:36:11.864Z,97.8
2022-08-28T03:37:12.460Z,97.4
2022-08-28T03:38:13.149Z,97.5
2022-08-28T03:39:13.762Z,97.5
2022-08-28T03:40:14.406Z,97.6
2022-08-28T03:41:14.951Z,98.0
2022-08-28T03:42:15.545Z,98.1
2022-08-28T03:43:16.178Z,97.9
2022-08-28T03:44:16.792Z,98.0
2022-08-28T03:45:17.388Z,97.7
2022-08-28T03:46:18.071Z,97.8
2022-08-28T03:47:18.657Z,98.0
2022-08-28T03:48:20.246Z,97.9
2022-08-28T03:49:20.857Z,97.9
2022-08-28T03:50:21.497Z,98.0
2022-08-28T03:51:22.460Z,97.8
2022-08-28T03:52:23.685Z,97.7
2022-08-28T03:53:24.283Z,98.0
2022-08-28T03:54:24.899Z,98.1
2022-08-28T03:55:25.496Z,98.1
2022-08-28T03:56:26.095Z,99.6
2022-08-28T03:57:26.691Z,98.6
2022-08-28T03:58:27.286Z,98.9
2022-08-28T03:59:29.791Z,99.1
2022-08-28T04:00:29.468Z,98.9
2022-08-28T04:01:30.113Z,99.1
2022-08-28T04:02:30.678Z,99.5
2022-08-28T04:03:31.336Z,99.3
2022-08-28T04:04:31.881Z,99.1
2022-08-28T04:05:32.480Z,99.0
2022-08-28T04:06:33.077Z,99.1
2022-08-28T04:07:34.666Z,98.7
2022-08-28T04:08:35.262Z,99.3
2022-08-28T04:09:35.862Z,99.0
2022-08-28T04:10:36.458Z,98.7
2022-08-28T04:11:37.056Z,99.3
2022-08-28T04:12:37.650Z,99.2
2022-08-28T04:13:38.247Z,99.0
2022-08-28T04:14:38.843Z,99.1
2022-08-28T04:15:39.465Z,99.2
2022-08-28T04:16:40.112Z,98.9
2022-08-28T04:17:40.719Z,98.9
2022-08-28T04:18:41.317Z,98.9
2022-08-28T04:19:41.917Z,98.7
2022-08-28T04:20:42.512Z,98.7
2022-08-28T04:21:44.107Z,98.7
2022-08-28T04:22:45.261Z,99.0
2022-08-28T04:23:45.804Z,98.9
2022-08-28T04:24:46.401Z,98.7
2022-08-28T04:25:47.002Z,98.8
2022-08-28T04:26:47.599Z,99.0
2022-08-28T04:27:48.200Z,99.0
2022-08-28T04:28:48.804Z,99.0
2022-08-28T04:29:49.400Z,98.9
2022-08-28T04:30:49.998Z,98.8
2022-08-28T04:31:50.668Z,98.9
2022-08-28T04:32:51.214Z,98.9
2022-08-28T04:33:51.834Z,98.7
2022-08-28T04:34:52.430Z,99.2
2022-08-28T04:35:53.029Z,98.7
2022-08-28T04:36:53.628Z,98.9
2022-08-28T04:37:57.528Z,99.1
2022-08-28T04:38:55.819Z,98.1
2022-08-28T04:39:56.444Z,98.1
2022-08-28T04:40:57.027Z,98.0
2022-08-28T04:41:58.617Z,98.1
2022-08-28T04:42:59.217Z,97.8
2022-08-28T04:43:59.818Z,97.8
2022-08-28T04:45:00.414Z,97.4
2022-08-28T04:46:01.083Z,97.0
2022-08-28T04:47:01.643Z,97.4
2022-08-28T04:48:03.329Z,97.9
2022-08-28T04:49:04.062Z,97.7
2022-08-28T04:50:04.662Z,97.3
2022-08-28T04:51:05.262Z,97.3
2022-08-28T04:52:05.864Z,97.5
2022-08-28T04:53:06.464Z,97.6
2022-08-28T04:54:07.065Z,97.7
2022-08-28T04:55:07.667Z,97.3
2022-08-28T04:56:08.266Z,97.1
2022-08-28T04:57:08.867Z,97.1
2022-08-28T04:58:09.921Z,97.4
2022-08-28T04:59:10.518Z,97.2
2022-08-28T05:00:11.121Z,97.2
2022-08-28T05:01:11.808Z,96.9
2022-08-28T05:02:12.495Z,96.9
2022-08-28T05:03:13.049Z,96.9
2022-08-28T05:04:13.651Z,96.7
2022-08-28T05:05:14.250Z,96.9
2022-08-28T05:06:14.852Z,96.8
2022-08-28T05:07:15.450Z,97.1
2022-08-28T05:08:16.054Z,96.9
2022-08-28T05:09:16.658Z,96.7
2022-08-28T05:10:17.256Z,96.6
2022-08-28T05:11:33.121Z,96.8
2022-08-28T05:12:19.454Z,96.6
2022-08-28T05:13:20.056Z,96.7
2022-08-28T05:14:20.658Z,96.3
2022-08-28T05:15:21.257Z,96.3
2022-08-28T05:16:21.926Z,96.6
2022-08-28T05:17:22.519Z,96.2
2022-08-28T05:18:23.121Z,96.2
2022-08-28T05:19:23.721Z,96.1
2022-08-28T05:20:24.326Z,95.9
2022-08-28T05:21:24.925Z,95.7
2022-08-28T05:22:25.529Z,95.5
2022-08-28T05:23:26.145Z,95.1
2022-08-28T05:24:26.747Z,95.4
2022-08-28T05:25:27.349Z,95.3
2022-08-28T05:26:29.726Z,95.3
2022-08-28T05:27:29.540Z,94.9
2022-08-28T05:28:30.142Z,94.2
2022-08-28T05:29:30.740Z,94.5
2022-08-28T05:30:31.345Z,94.4
2022-08-28T05:31:31.984Z,94.8
2022-08-28T05:32:32.549Z,93.9
2022-08-28T05:33:33.146Z,94.4
2022-08-28T05:34:33.748Z,94.5
2022-08-28T05:35:34.347Z,94.6
2022-08-28T05:36:34.947Z,94.5
2022-08-28T05:37:35.552Z,93.9
2022-08-28T05:38:36.149Z,93.6
2022-08-28T05:39:36.751Z,93.1
2022-08-28T05:40:37.383Z,93.1
2022-08-28T05:41:37.951Z,93.2
2022-08-28T05:42:39.169Z,93.5
2022-08-28T05:43:39.782Z,93.4
2022-08-28T05:44:40.382Z,94.0
2022-08-28T05:45:41.009Z,93.2
2022-08-28T05:46:41.584Z,92.9
2022-08-28T05:47:42.210Z,92.7
2022-08-28T05:48:42.809Z,93.4
2022-08-28T05:49:43.412Z,93.2
2022-08-28T05:50:47.309Z,92.9
2022-08-28T05:51:45.610Z,93.1
2022-08-28T05:52:46.209Z,92.9
2022-08-28T05:53:46.809Z,92.7
2022-08-28T05:54:47.412Z,92.8
2022-08-28T05:55:51.801Z,92.4
2022-08-28T05:56:49.626Z,92.4
2022-08-28T05:57:50.231Z,92.0
2022-08-28T05:58:50.833Z,92.0
2022-08-28T05:59:51.435Z,91.4
2022-08-28T06:00:52.037Z,91.8
2022-08-28T06:01:52.779Z,91.2
2022-08-28T06:02:53.253Z,91.3
2022-08-28T06:03:53.965Z,91.1
2022-08-28T06:04:54.568Z,91.0
2022-08-28T06:05:55.170Z,91.2
2022-08-28T06:06:55.772Z,89.8
2022-08-28T06:07:56.493Z,89.6
2022-08-28T06:08:58.596Z,90.3
2022-08-28T06:09:58.588Z,88.8
2022-08-28T06:10:59.189Z,89.0
2022-08-28T06:12:00.498Z,88.4
2022-08-28T06:13:02.093Z,88.5
2022-08-28T06:14:03.465Z,87.4
2022-08-28T06:15:04.088Z,87.5
2022-08-28T06:16:04.721Z,87.4
2022-08-28T06:17:05.307Z,86.2
2022-08-28T06:18:05.975Z,83.0
2022-08-28T06:19:06.544Z,83.1
2022-08-28T06:20:07.148Z,84.1
2022-08-28T06:21:07.750Z,83.8
2022-08-28T06:22:08.355Z,82.3
2022-08-28T06:23:08.955Z,79.3
2022-08-28T06:24:09.557Z,76.1
2022-08-28T06:25:10.160Z,76.7
2022-08-28T06:26:11.119Z,76.9
2022-08-28T06:27:11.666Z,78.6
2022-08-28T06:28:12.395Z,78.4
2022-08-28T06:29:13.007Z,73.9
2022-08-28T06:30:13.612Z,70.9
2022-08-28T06:31:23.487Z,69.1
2022-08-28T06:32:15.865Z,72.2
2022-08-28T06:33:16.435Z,72.7
2022-08-28T06:34:17.033Z,72.2
2022-08-28T06:35:17.637Z,69.8
2022-08-28T06:36:18.244Z,69.0
2022-08-28T06:37:18.867Z,70.9
2022-08-28T06:38:19.470Z,72.7
2022-08-28T06:39:20.071Z,73.9
2022-08-28T06:40:20.738Z,74.7
2022-08-28T06:41:21.352Z,75.5
2022-08-28T06:42:21.957Z,72.4
2022-08-28T06:43:22.556Z,73.5
2022-08-28T06:44:23.160Z,73.7
2022-08-28T06:45:23.763Z,70.9
2022-08-28T06:46:24.421Z,70.5
2022-08-28T06:47:24.963Z,72.4
2022-08-28T06:48:25.567Z,72.6
2022-08-28T06:49:26.168Z,73.5
2022-08-28T06:50:26.771Z,74.4
2022-08-28T06:51:27.376Z,74.7
2022-08-28T06:52:27.978Z,76.1
2022-08-28T06:53:28.578Z,75.5
2022-08-28T06:54:29.181Z,75.2
2022-08-28T06:55:29.782Z,75.2
2022-08-28T06:56:30.383Z,75.5
2022-08-28T06:57:30.984Z,76.8
2022-08-28T06:58:31.584Z,76.4
2022-08-28T06:59:32.185Z,75.1
2022-08-28T07:00:32.788Z,72.7
2022-08-28T07:01:33.453Z,74.3
2022-08-28T07:02:34.125Z,74.7
2022-08-28T07:03:34.686Z,75.0
2022-08-28T07:04:35.288Z,70.7
2022-08-28T07:05:35.889Z,66.3
2022-08-28T07:06:36.492Z,64.2
2022-08-28T07:07:37.090Z,65.6
2022-08-28T07:08:37.712Z,63.9
2022-08-28T07:09:38.310Z,64.3
2022-08-28T07:10:38.911Z,63.2
2022-08-28T07:11:39.537Z,63.5
2022-08-28T07:12:40.135Z,64.9
2022-08-28T07:13:40.735Z,64.8
2022-08-28T07:14:41.337Z,65.4
2022-08-28T07:15:42.126Z,65.9
2022-08-28T07:16:42.691Z,66.3
2022-08-28T07:17:43.438Z,65.5
2022-08-28T07:18:44.041Z,65.0
2022-08-28T07:19:44.644Z,63.5
2022-08-28T07:20:45.266Z,62.3
2022-08-28T07:21:45.878Z,64.5
2022-08-28T07:22:46.474Z,65.6
2022-08-28T07:23:47.095Z,64.5
2022-08-28T07:24:47.698Z,64.5
2022-08-28T07:25:48.297Z,65.9
2022-08-28T07:26:48.899Z,66.8
2022-08-28T07:27:49.503Z,65.8
2022-08-28T07:28:50.102Z,64.3
2022-08-28T07:29:50.704Z,64.8
2022-08-28T07:30:51.332Z,67.0
2022-08-28T07:31:51.905Z,66.5
2022-08-28T07:32:52.508Z,65.0
2022-08-28T07:33:54.023Z,64.5
2022-08-28T07:34:54.708Z,63.1
2022-08-28T07:35:56.172Z,63.5
2022-08-28T07:36:56.776Z,65.5
2022-08-28T07:37:57.378Z,66.5
2022-08-28T07:38:57.987Z,67.5
2022-08-28T07:39:58.613Z,65.6
2022-08-28T07:40:59.189Z,66.7
2022-08-28T07:41:59.792Z,67.7
2022-08-28T07:43:00.396Z,66.8
2022-08-28T07:44:01.000Z,66.6
2022-08-28T07:45:01.603Z,67.6
2022-08-28T07:46:02.226Z,66.9
2022-08-28T07:47:02.807Z,66.4
2022-08-28T07:48:03.412Z,66.9
2022-08-28T07:49:04.017Z,69.0
2022-08-28T07:50:04.620Z,68.4
2022-08-28T07:51:05.242Z,67.1
2022-08-28T07:52:05.846Z,66.6
2022-08-28T07:53:06.448Z,67.2
2022-08-28T07:54:07.048Z,67.7
2022-08-28T07:55:08.646Z,69.5
2022-08-28T07:56:09.248Z,69.1
2022-08-28T07:57:09.851Z,67.2
2022-08-28T07:58:10.484Z,66.5
2022-08-28T07:59:11.055Z,66.4
2022-08-28T08:00:11.656Z,65.0
2022-08-28T08:01:12.283Z,66.1
2022-08-28T08:02:12.864Z,65.4
2022-08-28T08:03:13.532Z,65.4
2022-08-28T08:04:14.092Z,65.3
2022-08-28T08:05:14.697Z,64.7
2022-08-28T08:06:15.298Z,63.8
2022-08-28T08:07:15.919Z,64.6
2022-08-28T08:08:16.519Z,63.3
2022-08-28T08:09:17.123Z,63.3
2022-08-28T08:10:19.878Z,63.8
2022-08-28T08:11:19.322Z,64.4
2022-08-28T08:12:20.197Z,65.0
2022-08-28T08:13:20.802Z,64.2
2022-08-28T08:14:21.399Z,64.0
2022-08-28T08:15:22.002Z,64.1
2022-08-28T08:16:22.638Z,63.9
2022-08-28T08:17:23.211Z,63.7
2022-08-28T08:18:24.147Z,64.3
2022-08-28T08:19:24.763Z,63.5
2022-08-28T08:20:25.364Z,64.1
2022-08-28T08:21:30.006Z,63.5
2022-08-28T08:22:27.570Z,64.0
2022-08-28T08:23:28.163Z,65.6
2022-08-28T08:24:28.764Z,64.7
2022-08-28T08:25:29.367Z,64.9
2022-08-28T08:26:30.964Z,64.5
2022-08-28T08:27:31.566Z,65.0
2022-08-28T08:28:32.167Z,66.1
2022-08-28T08:29:32.773Z,65.8
2022-08-28T08:30:33.372Z,66.7
2022-08-28T08:31:34.010Z,66.3
2022-08-28T08:32:34.593Z,64.6
2022-08-28T08:33:35.195Z,65.5
2022-08-28T08:34:35.796Z,64.3
2022-08-28T08:35:36.400Z,64.2
2022-08-28T08:36:37.024Z,64.2
2022-08-28T08:37:37.629Z,62.3
2022-08-28T08:38:38.230Z,62.8
2022-08-28T08:39:38.846Z,63.2
2022-08-28T08:40:39.512Z,63.3
2022-08-28T08:41:40.130Z,64.7
2022-08-28T08:42:40.737Z,66.5
2022-08-28T08:43:41.337Z,67.2
2022-08-28T08:44:41.939Z,66.3
2022-08-28T08:45:42.543Z,64.7
2022-08-28T08:46:43.751Z,63.4
2022-08-28T08:47:44.337Z,63.0
2022-08-28T08:48:44.913Z,62.4
2022-08-28T08:49:45.517Z,62.5
2022-08-28T08:50:46.117Z,62.3
2022-08-28T08:51:46.720Z,63.0
2022-08-28T08:52:47.321Z,64.2
2022-08-28T08:53:47.927Z,64.8
2022-08-28T08:54:48.526Z,63.0
2022-08-28T08:55:49.128Z,63.9
2022-08-28T08:56:49.729Z,62.4
2022-08-28T08:57:50.333Z,64.6
2022-08-28T08:58:50.935Z,63.9
2022-08-28T08:59:51.540Z,63.7
2022-08-28T09:00:52.145Z,64.1
2022-08-28T09:01:52.804Z,64.3
2022-08-28T09:02:53.361Z,63.5
2022-08-28T09:03:54.030Z,63.1
2022-08-28T09:04:56.357Z,63.6
2022-08-28T09:05:56.182Z,61.8
2022-08-28T09:06:56.785Z,62.9
2022-08-28T09:07:57.407Z,63.9
2022-08-28T09:08:58.010Z,63.8
2022-08-28T09:09:58.635Z,63.2
2022-08-28T09:10:59.255Z,61.6
2022-08-28T09:11:59.858Z,60.4
2022-08-28T09:13:00.467Z,61.9
2022-08-28T09:14:01.061Z,63.1
2022-08-28T09:15:01.661Z,62.8
2022-08-28T09:16:02.304Z,62.6
2022-08-28T09:17:02.862Z,62.5
2022-08-28T09:18:03.465Z,63.8
2022-08-28T09:19:04.078Z,64.9
2022-08-28T09:20:04.668Z,64.4
2022-08-28T09:21:05.269Z,63.4
2022-08-28T09:22:05.875Z,62.0
2022-08-28T09:23:13.158Z,62.9
2022-08-28T09:24:11.031Z,61.2
2022-08-28T09:25:09.669Z,60.5
2022-08-28T09:26:10.271Z,59.5
2022-08-28T09:27:14.379Z,59.6
2022-08-28T09:28:13.637Z,59.6
2022-08-28T09:29:14.254Z,59.6
2022-08-28T09:30:14.859Z,58.1
2022-08-28T09:31:15.540Z,59.3
2022-08-28T09:32:17.057Z,58.9
2022-08-28T09:33:17.662Z,58.0
2022-08-28T09:34:18.264Z,59.5
2022-08-28T09:35:18.868Z,60.2
2022-08-28T09:36:19.471Z,59.6
2022-08-28T09:37:20.071Z,59.5
2022-08-28T09:38:20.675Z,59.7
2022-08-28T09:39:21.278Z,59.7
2022-08-28T09:40:21.997Z,59.4
2022-08-28T09:41:22.597Z,59.0
2022-08-28T09:42:23.203Z,57.9
2022-08-28T09:43:23.806Z,55.4
2022-08-28T09:44:24.407Z,57.2
2022-08-28T09:45:25.011Z,57.1
2022-08-28T09:46:25.632Z,58.4
2022-08-28T09:47:26.243Z,58.1
2022-08-28T09:48:26.846Z,58.3
2022-08-28T09:49:27.446Z,59.6
2022-08-28T09:50:28.050Z,59.9
2022-08-28T09:51:28.651Z,59.5
2022-08-28T09:52:29.257Z,59.6
2022-08-28T09:53:29.859Z,59.1
2022-08-28T09:54:30.465Z,59.8
2022-08-28T09:55:31.069Z,59.4
2022-08-28T09:56:31.669Z,59.4
2022-08-28T09:57:32.272Z,59.6
2022-08-28T09:58:32.873Z,60.9
2022-08-28T09:59:33.477Z,60.7
2022-08-28T10:00:34.079Z,60.4
2022-08-28T10:01:34.725Z,60.7
2022-08-28T10:02:35.286Z,60.5
2022-08-28T10:03:35.890Z,60.5
2022-08-28T10:04:36.542Z,61.9
2022-08-28T10:05:37.129Z,62.5
2022-08-28T10:06:37.736Z,60.7
2022-08-28T10:07:38.339Z,59.5
2022-08-28T10:08:38.940Z,58.7
2022-08-28T10:09:39.544Z,57.4
2022-08-28T10:10:41.139Z,57.6
2022-08-28T10:11:44.312Z,58.0
2022-08-28T10:12:43.339Z,57.9
2022-08-28T10:13:43.941Z,56.9
2022-08-28T10:14:44.544Z,55.6
2022-08-28T10:15:45.209Z,55.7
2022-08-28T10:16:45.766Z,57.2
2022-08-28T10:17:46.369Z,57.9
2022-08-28T10:18:46.973Z,55.8
2022-08-28T10:19:47.575Z,55.2
2022-08-28T10:20:48.177Z,55.7
2022-08-28T10:21:49.020Z,57.4
2022-08-28T10:22:49.640Z,57.7
2022-08-28T10:23:50.245Z,57.4
2022-08-28T10:24:50.892Z,57.6
2022-08-28T10:25:51.512Z,57.5
2022-08-28T10:26:52.116Z,58.1
2022-08-28T10:27:52.718Z,57.4
2022-08-28T10:28:53.315Z,57.3
2022-08-28T10:29:53.938Z,57.6
2022-08-28T10:30:54.584Z,58.3
2022-08-28T10:31:55.164Z,57.6
2022-08-28T10:32:55.766Z,55.8
2022-08-28T10:33:56.369Z,55.3
2022-08-28T10:34:56.971Z,55.2
2022-08-28T10:35:57.578Z,57.1
2022-08-28T10:36:58.180Z,58.0
2022-08-28T10:37:58.784Z,58.3
2022-08-28T10:38:59.385Z,58.3
2022-08-28T10:40:00.043Z,59.1
2022-08-28T10:41:00.595Z,58.1
2022-08-28T10:42:01.198Z,57.7
2022-08-28T10:43:01.803Z,57.1
2022-08-28T10:44:02.430Z,57.9
2022-08-28T10:45:03.031Z,57.4
2022-08-28T10:46:03.694Z,56.9
2022-08-28T10:47:04.298Z,55.2
2022-08-28T10:48:04.901Z,56.8
2022-08-28T10:49:05.503Z,56.8
2022-08-28T10:50:06.108Z,57.1
2022-08-28T10:51:06.712Z,56.1
2022-08-28T10:52:07.319Z,57.6
2022-08-28T10:53:07.921Z,57.1
2022-08-28T10:54:08.528Z,56.4
2022-08-28T10:55:09.131Z,56.5
2022-08-28T10:56:09.732Z,55.3
2022-08-28T10:57:10.334Z,56.3
2022-08-28T10:58:25.158Z,55.1
2022-08-28T10:59:11.557Z,54.8
2022-08-28T11:00:12.168Z,54.6
2022-08-28T11:01:12.807Z,53.4
2022-08-28T11:02:13.409Z,54.1
2022-08-28T11:03:33.031Z,53.6
2022-08-28T11:04:15.572Z,52.9
2022-08-28T11:05:16.174Z,54.2
2022-08-28T11:06:16.777Z,55.2
2022-08-28T11:07:17.380Z,54.7
2022-08-28T11:08:17.985Z,55.4
2022-08-28T11:09:18.591Z,55.7
2022-08-28T11:10:19.199Z,54.5
2022-08-28T11:11:19.800Z,54.4
2022-08-28T11:12:20.404Z,54.6
2022-08-28T11:13:21.008Z,53.2
2022-08-28T11:14:21.612Z,53.8
2022-08-28T11:15:22.215Z,53.1
2022-08-28T11:16:22.844Z,54.3
2022-08-28T11:17:23.423Z,55.3
2022-08-28T11:18:25.295Z,55.5
2022-08-28T11:19:25.623Z,55.6
2022-08-28T11:20:26.227Z,56.1
2022-08-28T11:21:26.831Z,55.6
2022-08-28T11:22:27.438Z,56.1
2022-08-28T11:23:28.064Z,55.7
2022-08-28T11:24:28.667Z,56.4
2022-08-28T11:25:32.703Z,56.0
2022-08-28T11:26:30.868Z,55.3
2022-08-28T11:27:32.465Z,54.5
2022-08-28T11:28:33.068Z,53.3
2022-08-28T11:29:33.672Z,54.1
2022-08-28T11:30:34.320Z,54.3
2022-08-28T11:31:34.936Z,53.8
2022-08-28T11:32:35.509Z,53.8
2022-08-28T11:33:36.113Z,54.1
2022-08-28T11:34:36.717Z,54.1
2022-08-28T11:35:37.321Z,53.8
2022-08-28T11:36:37.928Z,53.7
2022-08-28T11:37:38.530Z,54.1
2022-08-28T11:38:39.134Z,51.9
2022-08-28T11:39:39.736Z,52.6
2022-08-28T11:40:40.434Z,52.6
2022-08-28T11:41:41.002Z,51.5
2022-08-28T11:42:41.606Z,52.1
2022-08-28T11:43:42.209Z,51.4
2022-08-28T11:44:42.813Z,53.3
2022-08-28T11:45:46.591Z,52.7
2022-08-28T11:46:45.014Z,54.2
2022-08-28T11:47:45.616Z,53.7
2022-08-28T11:48:46.221Z,54.2
2022-08-28T11:49:46.827Z,53.8
2022-08-28T11:50:47.433Z,52.8
2022-08-28T11:51:48.071Z,52.7
2022-08-28T11:52:48.679Z,51.9
2022-08-28T11:53:49.283Z,51.9
2022-08-28T11:54:49.906Z,50.2
2022-08-28T11:55:50.509Z,51.1
2022-08-28T11:56:51.114Z,49.8
2022-08-28T11:57:51.719Z,50.5
2022-08-28T11:58:52.344Z,51.4
2022-08-28T11:59:53.422Z,50.7
2022-08-28T12:00:54.027Z,52.0
2022-08-28T12:01:54.626Z,51.7
2022-08-28T12:02:55.301Z,51.8
2022-08-28T12:03:55.972Z,51.2
2022-08-28T12:04:56.558Z,51.6
2022-08-28T12:05:57.161Z,50.4
2022-08-28T12:06:57.787Z,50.6
2022-08-28T12:07:58.392Z,50.7
2022-08-28T12:08:58.997Z,51.3
2022-08-28T12:10:04.263Z,51.7
2022-08-28T12:11:01.198Z,50.7
2022-08-28T12:12:01.803Z,51.9
2022-08-28T12:13:02.429Z,50.7
2022-08-28T12:14:03.018Z,50.1
2022-08-28T12:15:03.633Z,50.7
2022-08-28T12:16:04.271Z,50.7
2022-08-28T12:17:04.862Z,50.7
2022-08-28T12:18:05.464Z,51.1
2022-08-28T12:19:06.072Z,50.3
2022-08-28T12:20:06.675Z,50.5
2022-08-28T12:21:07.369Z,51.1
2022-08-28T12:22:07.988Z,51.0
2022-08-28T12:23:08.660Z,51.9
2022-08-28T12:24:10.052Z,50.6
2022-08-28T12:25:10.811Z,49.5
2022-08-28T12:26:11.415Z,50.4
2022-08-28T12:27:12.019Z,50.3
2022-08-28T12:28:13.064Z,49.7
2022-08-28T12:29:13.245Z,50.5
2022-08-28T12:30:13.845Z,50.8
2022-08-28T12:31:14.485Z,50.6
2022-08-28T12:32:15.088Z,50.5
2022-08-28T12:33:15.687Z,52.0
2022-08-28T12:34:16.291Z,51.2
2022-08-28T12:35:16.980Z,50.2
2022-08-28T12:36:17.563Z,50.2
2022-08-28T12:37:18.169Z,48.9
2022-08-28T12:38:18.772Z,48.7
2022-08-28T12:39:19.377Z,49.5
2022-08-28T12:40:20.015Z,49.0
2022-08-28T12:41:21.000Z,49.0
2022-08-28T12:42:21.637Z,48.7
2022-08-28T12:43:22.244Z,48.6
2022-08-28T12:44:23.733Z,49.4
2022-08-28T12:45:24.339Z,48.3
2022-08-28T12:46:24.979Z,49.8
2022-08-28T12:47:25.568Z,49.6
2022-08-28T12:48:26.174Z,50.4
2022-08-28T12:49:26.795Z,50.5
2022-08-28T12:50:27.399Z,50.7
2022-08-28T12:51:28.003Z,49.7
2022-08-28T12:52:28.607Z,48.6
2022-08-28T12:53:29.218Z,49.4
2022-08-28T12:54:29.819Z,49.7
2022-08-28T12:55:30.424Z,49.7
2022-08-28T12:56:31.028Z,49.6
2022-08-28T12:57:31.631Z,50.6
2022-08-28T12:58:32.236Z,50.5
2022-08-28T12:59:32.842Z,50.0
2022-08-28T13:00:33.466Z,49.5
2022-08-28T13:01:34.217Z,50.1
2022-08-28T13:02:35.032Z,50.4
2022-08-28T13:03:35.624Z,50.3
2022-08-28T13:04:36.225Z,49.9
2022-08-28T13:05:36.831Z,48.9
2022-08-28T13:06:37.432Z,49.7
2022-08-28T13:07:38.040Z,49.4
2022-08-28T13:08:38.657Z,49.5
2022-08-28T13:09:39.261Z,49.3
2022-08-28T13:10:39.863Z,48.9
2022-08-28T13:11:40.468Z,49.6
2022-08-28T13:12:54.798Z,49.8
2022-08-28T13:13:42.673Z,49.7
2022-08-28T13:14:43.274Z,49.4
2022-08-28T13:15:43.883Z,49.6
2022-08-28T13:16:44.518Z,48.7
2022-08-28T13:17:45.096Z,48.8
2022-08-28T13:18:45.722Z,49.4
2022-08-28T13:19:46.327Z,49.7
2022-08-28T13:20:46.933Z,49.8
2022-08-28T13:21:47.560Z,49.5
2022-08-28T13:22:50.858Z,49.7
2022-08-28T13:23:49.757Z,48.7
2022-08-28T13:24:50.360Z,48.6
2022-08-28T13:25:50.965Z,48.8
2022-08-28T13:26:51.571Z,49.5
2022-08-28T13:27:52.175Z,49.3